createdAt,value
2023-03-21T00:00:47.935Z,7.10
2023-03-21T00:03:15.855Z,7.10
2023-03-21T00:05:45.677Z,7.10
2023-03-21T00:08:12.381Z,7.00
2023-03-21T00:10:43.655Z,7.00
2023-03-21T00:13:13.039Z,7.00
2023-03-21T00:16:03.542Z,7.00
2023-03-21T00:18:36.945Z,6.90
2023-03-21T00:21:37.774Z,6.90
2023-03-21T00:23:52.231Z,6.90
2023-03-21T00:26:18.897Z,6.90
2023-03-21T00:28:45.719Z,6.80
2023-03-21T00:31:12.439Z,6.90
2023-03-21T00:33:39.362Z,6.80
2023-03-21T00:36:07.578Z,6.80
2023-03-21T00:38:35.702Z,6.70
2023-03-21T00:41:18.820Z,6.70
2023-03-21T00:43:47.831Z,6.60
2023-03-21T00:46:14.869Z,6.70
2023-03-21T00:48:41.565Z,6.60
2023-03-21T00:51:15.486Z,6.60
2023-03-21T00:53:42.720Z,6.50
2023-03-21T00:56:09.600Z,6.50
2023-03-21T00:58:36.363Z,6.50
2023-03-21T01:01:04.387Z,6.50
2023-03-21T01:03:31.126Z,6.50
2023-03-21T01:06:04.782Z,6.40
2023-03-21T01:08:48.673Z,6.40
2023-03-21T01:11:21.110Z,6.30
2023-03-21T01:13:54.790Z,6.30
2023-03-21T01:16:24.937Z,6.30
2023-03-21T01:18:51.600Z,6.30
2023-03-21T01:21:18.449Z,6.20
2023-03-21T01:23:45.565Z,6.20
2023-03-21T01:26:13.780Z,6.10
2023-03-21T01:28:42.305Z,6.10
2023-03-21T01:31:11.638Z,6.10
2023-03-21T01:33:38.635Z,6.10
2023-03-21T01:36:12.737Z,6.10
2023-03-21T01:38:42.517Z,6.00
2023-03-21T01:41:36.692Z,5.90
2023-03-21T01:44:16.199Z,5.80
2023-03-21T01:46:54.400Z,5.90
2023-03-21T01:49:35.659Z,5.90
2023-03-21T01:52:15.235Z,5.80
2023-03-21T01:54:47.822Z,5.80
2023-03-21T01:57:25.889Z,5.80
2023-03-21T01:59:54.692Z,5.80
2023-03-21T02:02:27.388Z,5.80
2023-03-21T02:04:58.030Z,5.90
2023-03-21T02:07:36.270Z,5.90
2023-03-21T02:10:07.779Z,6.00
2023-03-21T02:12:34.510Z,5.90
2023-03-21T02:15:01.206Z,5.90
2023-03-21T02:17:46.697Z,5.90
2023-03-21T02:20:21.944Z,5.80
2023-03-21T02:23:20.080Z,5.80
2023-03-21T02:26:16.946Z,5.80
2023-03-21T02:28:57.649Z,5.80
2023-03-21T02:31:39.027Z,5.80
2023-03-21T02:34:35.498Z,5.80
2023-03-21T02:37:09.423Z,5.70
2023-03-21T02:40:07.950Z,5.70
2023-03-21T02:43:00.912Z,5.60
2023-03-21T02:45:36.067Z,5.60
2023-03-21T02:48:10.059Z,5.60
2023-03-21T02:50:45.560Z,5.60
2023-03-21T02:53:16.079Z,5.70
2023-03-21T02:55:43.827Z,5.70
2023-03-21T02:58:16.587Z,5.70
2023-03-21T03:00:44.638Z,5.70
2023-03-21T03:03:18.107Z,5.70
2023-03-21T03:05:51.458Z,5.60
2023-03-21T03:08:41.188Z,5.60
2023-03-21T03:11:20.152Z,5.60
2023-03-21T03:13:46.748Z,5.60
2023-03-21T03:16:19.776Z,5.50
2023-03-21T03:19:23.028Z,5.50
2023-03-21T03:21:57.320Z,5.40
2023-03-21T03:24:47.711Z,5.30
2023-03-21T03:27:19.730Z,5.20
2023-03-21T03:29:48.798Z,5.30
2023-03-21T03:32:35.461Z,5.20
2023-03-21T03:35:04.316Z,5.20
2023-03-21T03:37:34.306Z,5.30
2023-03-21T03:40:08.141Z,5.30
2023-03-21T03:42:36.071Z,5.30
2023-03-21T03:45:05.836Z,5.30
2023-03-21T03:47:57.068Z,5.20
2023-03-21T03:50:31.385Z,5.20
2023-03-21T03:53:21.205Z,5.20
2023-03-21T03:55:48.987Z,5.20
2023-03-21T03:58:24.752Z,5.20
2023-03-21T04:00:56.697Z,5.20
2023-03-21T04:03:23.597Z,5.20
2023-03-21T04:05:50.333Z,5.20
2023-03-21T04:08:17.537Z,5.20
2023-03-21T04:10:44.420Z,5.30
2023-03-21T04:13:11.332Z,5.30
2023-03-21T04:15:38.005Z,5.30
2023-03-21T04:18:04.718Z,5.20
2023-03-21T04:20:37.013Z,5.20
2023-03-21T04:23:04.740Z,5.10
2023-03-21T04:25:34.918Z,5.20
2023-03-21T04:28:02.047Z,5.20
2023-03-21T04:30:28.914Z,5.20
2023-03-21T04:32:56.920Z,5.10
2023-03-21T04:35:24.809Z,5.20
2023-03-21T04:37:51.732Z,5.10
2023-03-21T04:40:18.850Z,5.10
2023-03-21T04:42:47.534Z,5.10
2023-03-21T04:45:15.739Z,5.10
2023-03-21T04:47:42.768Z,5.10
2023-03-21T04:50:10.728Z,5.00
2023-03-21T04:52:37.462Z,5.00
2023-03-21T04:55:04.564Z,5.00
2023-03-21T04:57:31.238Z,5.00
2023-03-21T04:59:57.928Z,5.00
2023-03-21T05:02:24.572Z,5.00
2023-03-21T05:04:51.175Z,4.90
2023-03-21T05:07:17.873Z,4.80
2023-03-21T05:09:44.486Z,4.80
2023-03-21T05:12:11.310Z,4.80
2023-03-21T05:14:37.947Z,4.80
2023-03-21T05:17:05.126Z,4.80
2023-03-21T05:19:35.887Z,4.90
2023-03-21T05:22:05.696Z,4.90
2023-03-21T05:24:33.317Z,4.90
2023-03-21T05:27:04.105Z,4.90
2023-03-21T05:29:32.271Z,4.90
2023-03-21T05:32:00.274Z,4.90
2023-03-21T05:34:27.846Z,4.90
2023-03-21T05:36:54.754Z,5.00
2023-03-21T05:39:21.850Z,4.90
2023-03-21T05:41:48.461Z,5.00
2023-03-21T05:44:15.504Z,4.90
2023-03-21T05:46:43.317Z,4.90
2023-03-21T05:49:11.450Z,4.90
2023-03-21T05:51:38.164Z,4.90
2023-03-21T05:54:04.863Z,5.00
2023-03-21T05:56:31.615Z,5.10
2023-03-21T05:58:58.228Z,5.00
2023-03-21T06:01:24.863Z,5.00
2023-03-21T06:03:51.663Z,5.00
2023-03-21T06:06:18.365Z,5.00
2023-03-21T06:08:45.440Z,5.00
2023-03-21T06:11:26.491Z,5.00
2023-03-21T06:13:53.144Z,5.00
2023-03-21T06:16:19.827Z,4.90
2023-03-21T06:18:46.618Z,5.00
2023-03-21T06:21:13.362Z,5.00
2023-03-21T06:23:40.249Z,5.00
2023-03-21T06:26:07.455Z,5.00
2023-03-21T06:28:34.080Z,5.10
2023-03-21T06:31:00.799Z,5.10
2023-03-21T06:33:28.243Z,5.20
2023-03-21T06:35:56.702Z,5.30
2023-03-21T06:38:24.450Z,5.40
2023-03-21T06:40:51.735Z,5.50
2023-03-21T06:43:18.411Z,5.50
2023-03-21T06:45:45.264Z,5.50
2023-03-21T06:48:12.169Z,5.50
2023-03-21T06:50:38.912Z,5.50
2023-03-21T06:53:05.506Z,5.60
2023-03-21T06:55:32.174Z,5.70
2023-03-21T06:57:59.346Z,5.70
2023-03-21T07:00:26.507Z,5.80
2023-03-21T07:02:53.791Z,5.80
2023-03-21T07:05:20.571Z,5.90
2023-03-21T07:07:48.463Z,6.00
2023-03-21T07:10:17.802Z,6.10
2023-03-21T07:12:44.498Z,6.20
2023-03-21T07:15:11.689Z,6.20
2023-03-21T07:17:38.386Z,6.30
2023-03-21T07:20:08.201Z,6.40
2023-03-21T07:22:35.834Z,6.50
2023-03-21T07:25:05.377Z,6.60
2023-03-21T07:27:32.444Z,6.60
2023-03-21T07:29:59.120Z,6.70
2023-03-21T07:32:29.785Z,6.80
2023-03-21T07:34:56.646Z,6.90
2023-03-21T07:37:23.887Z,6.90
2023-03-21T07:39:51.311Z,7.00
2023-03-21T07:42:18.635Z,7.00
2023-03-21T07:44:45.513Z,7.00
2023-03-21T07:47:12.163Z,7.10
2023-03-21T07:49:38.791Z,7.10
2023-03-21T07:52:07.723Z,7.20
2023-03-21T07:54:34.383Z,7.20
2023-03-21T07:57:01.268Z,7.30
2023-03-21T07:59:27.901Z,7.30
2023-03-21T08:01:54.590Z,7.50
2023-03-21T08:04:22.452Z,7.60
2023-03-21T08:06:51.041Z,7.70
2023-03-21T08:09:17.588Z,7.70
2023-03-21T08:11:44.191Z,7.90
2023-03-21T08:14:10.902Z,7.90
2023-03-21T08:16:37.646Z,8.00
2023-03-21T08:19:04.279Z,8.10
2023-03-21T08:21:31.343Z,8.10
2023-03-21T08:23:57.917Z,8.20
2023-03-21T08:26:26.368Z,8.30
2023-03-21T08:28:56.110Z,8.40
2023-03-21T08:31:22.824Z,8.40
2023-03-21T08:33:54.211Z,8.50
2023-03-21T08:36:22.646Z,8.60
2023-03-21T08:38:54.036Z,8.60
2023-03-21T08:41:22.052Z,8.70
2023-03-21T08:43:49.033Z,8.70
2023-03-21T08:46:15.777Z,8.80
2023-03-21T08:48:42.709Z,8.90
2023-03-21T08:51:09.424Z,8.90
2023-03-21T08:53:36.299Z,9.00
2023-03-21T08:56:02.892Z,9.00
2023-03-21T08:58:29.507Z,9.00
2023-03-21T09:00:56.396Z,9.10
2023-03-21T09:03:22.981Z,9.10
2023-03-21T09:05:50.029Z,9.20
2023-03-21T09:08:16.638Z,9.20
2023-03-21T09:10:43.240Z,9.30
2023-03-21T09:13:10.089Z,9.40
2023-03-21T09:15:37.056Z,9.40
2023-03-21T09:18:13.250Z,9.50
2023-03-21T09:20:40.833Z,9.50
2023-03-21T09:23:07.448Z,9.50
2023-03-21T09:25:34.045Z,9.60
2023-03-21T09:28:03.991Z,9.70
2023-03-21T09:30:32.828Z,9.70
2023-03-21T09:33:01.328Z,9.70
2023-03-21T09:35:28.320Z,9.80
2023-03-21T09:37:57.394Z,9.90
2023-03-21T09:40:52.597Z,9.90
2023-03-21T09:43:35.597Z,10.00
2023-03-21T09:46:21.547Z,10.10
2023-03-21T09:48:58.778Z,10.10
2023-03-21T09:51:39.532Z,10.20
2023-03-21T09:54:47.022Z,10.30
2023-03-21T09:57:31.739Z,10.40
2023-03-21T10:00:09.864Z,10.50
2023-03-21T10:02:49.535Z,10.60
2023-03-21T10:05:19.051Z,10.60
2023-03-21T10:07:51.901Z,10.70
2023-03-21T10:10:25.059Z,10.80
2023-03-21T10:12:54.633Z,10.90
2023-03-21T10:15:23.746Z,11.00
2023-03-21T10:17:56.592Z,11.10
2023-03-21T10:20:27.704Z,11.10
2023-03-21T10:22:56.658Z,11.10
2023-03-21T10:25:44.247Z,11.30
2023-03-21T10:28:17.114Z,11.30
2023-03-21T10:30:52.599Z,11.40
2023-03-21T10:33:27.365Z,11.50
2023-03-21T10:35:59.877Z,11.60
2023-03-21T10:38:27.167Z,11.60
2023-03-21T10:40:54.286Z,11.70
2023-03-21T10:43:33.844Z,11.70
2023-03-21T10:46:12.049Z,11.80
2023-03-21T10:48:41.243Z,11.80
2023-03-21T10:51:09.569Z,11.90
2023-03-21T10:53:41.209Z,12.00
2023-03-21T10:56:11.195Z,12.10
2023-03-21T10:58:49.319Z,12.10
2023-03-21T11:01:41.821Z,12.30
2023-03-21T11:04:18.020Z,12.30
2023-03-21T11:06:51.265Z,12.40
2023-03-21T11:09:21.672Z,12.50
2023-03-21T11:12:10.822Z,12.50
2023-03-21T11:14:40.552Z,12.60
2023-03-21T11:17:28.354Z,12.60
2023-03-21T11:20:00.272Z,12.80
2023-03-21T11:22:31.220Z,12.90
2023-03-21T11:25:01.182Z,13.00
2023-03-21T11:27:30.038Z,13.00
2023-03-21T11:29:59.638Z,13.10
2023-03-21T11:32:37.619Z,13.20
2023-03-21T11:35:09.009Z,13.30
2023-03-21T11:37:47.665Z,13.40
2023-03-21T11:40:25.043Z,13.40
2023-03-21T11:42:57.634Z,13.50
2023-03-21T11:45:28.552Z,13.50
2023-03-21T11:47:58.816Z,13.60
2023-03-21T11:50:29.388Z,13.70
2023-03-21T11:53:28.306Z,13.70
2023-03-21T11:56:07.139Z,13.80
2023-03-21T11:58:44.117Z,13.90
2023-03-21T12:01:44.761Z,13.90
2023-03-21T12:04:26.176Z,14.00
2023-03-21T12:07:11.598Z,14.10
2023-03-21T12:09:41.556Z,14.10
2023-03-21T12:12:38.439Z,14.20
2023-03-21T12:15:27.419Z,14.30
2023-03-21T12:18:22.994Z,14.30
2023-03-21T12:21:03.782Z,14.30
2023-03-21T12:23:49.041Z,14.40
2023-03-21T12:26:30.909Z,14.50
2023-03-21T12:29:21.752Z,14.50
2023-03-21T12:32:10.944Z,14.60
2023-03-21T12:34:53.277Z,14.60
2023-03-21T12:37:41.583Z,14.60
2023-03-21T12:40:34.564Z,14.70
2023-03-21T12:43:23.480Z,14.80
2023-03-21T12:45:55.727Z,14.80
2023-03-21T12:48:43.984Z,14.80
2023-03-21T12:51:17.714Z,14.80
2023-03-21T12:53:53.392Z,14.80
2023-03-21T12:56:40.547Z,14.70
2023-03-21T12:59:36.012Z,14.80
2023-03-21T13:02:29.366Z,14.80
2023-03-21T13:05:11.661Z,14.80
2023-03-21T13:07:42.778Z,14.80
2023-03-21T13:10:24.181Z,14.80
2023-03-21T13:13:15.511Z,14.90
2023-03-21T13:16:00.689Z,14.90
2023-03-21T13:18:36.461Z,15.00
2023-03-21T13:21:21.250Z,15.00
2023-03-21T13:24:16.233Z,15.00
2023-03-21T13:26:49.846Z,15.10
2023-03-21T13:29:27.029Z,15.20
2023-03-21T13:31:58.851Z,15.30
2023-03-21T13:34:26.953Z,15.30
2023-03-21T13:36:56.454Z,15.30
2023-03-21T13:39:28.754Z,15.30
2023-03-21T13:41:56.067Z,15.40
2023-03-21T13:44:50.268Z,15.40
2023-03-21T13:47:39.176Z,15.40
2023-03-21T13:51:00.762Z,15.50
2023-03-21T13:53:32.688Z,15.50
2023-03-21T13:56:20.791Z,15.60
2023-03-21T13:58:47.453Z,15.60
2023-03-21T14:01:34.338Z,15.60
2023-03-21T14:04:13.082Z,15.70
2023-03-21T14:06:48.861Z,15.70
2023-03-21T14:09:27.986Z,15.70
2023-03-21T14:11:58.803Z,15.70
2023-03-21T14:14:37.370Z,15.70
2023-03-21T14:17:16.082Z,15.70
2023-03-21T14:19:42.684Z,15.80
2023-03-21T14:22:13.010Z,15.80
2023-03-21T14:24:41.151Z,15.80
2023-03-21T14:27:08.836Z,15.80
2023-03-21T14:29:35.812Z,15.90
2023-03-21T14:32:03.242Z,15.90
2023-03-21T14:34:33.089Z,15.90
2023-03-21T14:36:59.760Z,16.00
2023-03-21T14:39:31.895Z,15.90
2023-03-21T14:42:11.865Z,15.90
2023-03-21T14:44:55.230Z,16.00
2023-03-21T14:47:29.485Z,16.00
2023-03-21T14:49:57.872Z,16.00
2023-03-21T14:52:32.523Z,16.10
2023-03-21T14:55:01.498Z,16.10
2023-03-21T14:57:32.354Z,16.10
2023-03-21T15:00:06.413Z,16.10
2023-03-21T15:02:35.700Z,16.10
2023-03-21T15:05:24.812Z,16.10
2023-03-21T15:07:59.826Z,16.10
2023-03-21T15:10:28.771Z,16.10
2023-03-21T15:13:02.234Z,16.10
2023-03-21T15:15:31.549Z,16.00
2023-03-21T15:18:04.076Z,16.00
2023-03-21T15:20:34.377Z,16.00
2023-03-21T15:23:06.382Z,16.00
2023-03-21T15:25:34.919Z,16.00
2023-03-21T15:28:03.080Z,16.00
2023-03-21T15:30:32.011Z,16.00
2023-03-21T15:33:06.215Z,16.00
2023-03-21T15:35:43.351Z,16.00
2023-03-21T15:38:23.762Z,16.00
2023-03-21T15:40:51.014Z,16.00
2023-03-21T15:43:20.397Z,16.00
2023-03-21T15:45:56.116Z,15.90
2023-03-21T15:48:27.246Z,16.00
2023-03-21T15:51:02.624Z,15.90
2023-03-21T15:53:34.332Z,15.90
2023-03-21T15:56:03.053Z,15.90
2023-03-21T15:58:41.251Z,15.90
2023-03-21T16:01:17.830Z,15.80
2023-03-21T16:04:08.055Z,15.80
2023-03-21T16:06:37.051Z,15.80
2023-03-21T16:09:14.242Z,15.80
2023-03-21T16:11:48.752Z,15.70
2023-03-21T16:14:15.624Z,15.80
2023-03-21T16:16:42.569Z,15.70
2023-03-21T16:19:09.374Z,15.70
2023-03-21T16:21:38.320Z,15.70
2023-03-21T16:24:06.780Z,15.70
2023-03-21T16:26:38.082Z,15.70
2023-03-21T16:29:07.050Z,15.70
2023-03-21T16:31:35.206Z,15.70
2023-03-21T16:34:01.795Z,15.60
2023-03-21T16:36:36.506Z,15.60
2023-03-21T16:39:21.281Z,15.60
2023-03-21T16:41:48.711Z,15.60
2023-03-21T16:44:15.617Z,15.60
2023-03-21T16:46:42.236Z,15.60
2023-03-21T16:49:23.759Z,15.60
2023-03-21T16:51:50.824Z,15.60
2023-03-21T16:54:17.466Z,15.60
2023-03-21T16:56:53.461Z,15.50
2023-03-21T16:59:20.574Z,15.50
2023-03-21T17:01:49.398Z,15.50
2023-03-21T17:04:18.279Z,15.50
2023-03-21T17:06:50.953Z,15.50
2023-03-21T17:09:23.357Z,15.50
2023-03-21T17:11:50.288Z,15.50
2023-03-21T17:14:17.907Z,15.40
2023-03-21T17:16:47.871Z,15.40
2023-03-21T17:19:23.849Z,15.40
2023-03-21T17:21:50.511Z,15.40
2023-03-21T17:24:17.354Z,15.30
2023-03-21T17:26:44.196Z,15.40
2023-03-21T17:29:15.364Z,15.30
2023-03-21T17:31:43.879Z,15.30
2023-03-21T17:34:11.294Z,15.20
2023-03-21T17:36:40.574Z,15.20
2023-03-21T17:39:12.747Z,15.20
2023-03-21T17:41:39.933Z,15.20
2023-03-21T17:44:06.742Z,15.20
2023-03-21T17:46:37.318Z,15.10
2023-03-21T17:49:05.296Z,15.10
2023-03-21T17:51:33.050Z,15.00
2023-03-21T17:54:00.354Z,14.90
2023-03-21T17:56:31.566Z,14.90
2023-03-21T17:59:03.879Z,14.80
2023-03-21T18:01:30.905Z,14.70
2023-03-21T18:03:58.759Z,14.70
2023-03-21T18:06:26.531Z,14.60
2023-03-21T18:08:54.290Z,14.50
2023-03-21T18:11:23.109Z,14.50
2023-03-21T18:13:50.221Z,14.50
2023-03-21T18:16:20.482Z,14.50
2023-03-21T18:18:47.420Z,14.50
2023-03-21T18:21:18.905Z,14.50
2023-03-21T18:23:46.519Z,14.50
2023-03-21T18:26:17.611Z,14.40
2023-03-21T18:28:45.408Z,14.30
2023-03-21T18:31:19.734Z,14.10
2023-03-21T18:33:48.418Z,13.90
2023-03-21T18:36:24.773Z,13.80
2023-03-21T18:38:52.205Z,13.70
2023-03-21T18:41:19.662Z,13.70
2023-03-21T18:44:00.949Z,13.60
2023-03-21T18:46:32.421Z,13.60
2023-03-21T18:49:04.065Z,13.60
2023-03-21T18:51:39.906Z,13.50
2023-03-21T18:54:06.571Z,13.40
2023-03-21T18:57:27.236Z,13.30
2023-03-21T18:59:21.703Z,13.30
2023-03-21T19:01:50.054Z,13.20
2023-03-21T19:04:25.528Z,13.10
2023-03-21T19:06:57.515Z,13.10
2023-03-21T19:09:29.451Z,13.00
2023-03-21T19:11:58.527Z,13.00
2023-03-21T19:14:25.397Z,13.00
2023-03-21T19:19:39.351Z,12.90
2023-03-21T19:22:06.260Z,12.90
2023-03-21T19:24:32.926Z,12.90
2023-03-21T19:26:59.564Z,12.90
2023-03-21T19:29:26.368Z,12.80
2023-03-21T19:31:53.373Z,12.80
2023-03-21T19:34:20.749Z,12.70
2023-03-21T19:36:51.513Z,12.60
2023-03-21T19:39:22.053Z,12.60
2023-03-21T19:41:49.091Z,12.50
2023-03-21T19:44:16.302Z,12.50
2023-03-21T19:46:43.032Z,12.50
2023-03-21T19:49:10.311Z,12.50
2023-03-21T19:51:37.552Z,12.40
2023-03-21T19:54:06.028Z,12.40
2023-03-21T19:56:34.496Z,12.40
2023-03-21T19:59:03.257Z,12.20
2023-03-21T20:01:34.507Z,12.30
2023-03-21T20:04:01.229Z,12.20
2023-03-21T20:06:27.922Z,12.20
2023-03-21T20:11:41.432Z,12.00
2023-03-21T20:14:08.475Z,12.00
2023-03-21T20:16:36.904Z,12.00
2023-03-21T20:19:10.134Z,12.00
2023-03-21T20:21:48.127Z,11.90
2023-03-21T20:24:19.086Z,11.90
2023-03-21T20:26:46.417Z,11.90
2023-03-21T20:30:14.619Z,11.90
2023-03-21T20:31:59.870Z,11.90
2023-03-21T20:34:26.595Z,11.90
2023-03-21T20:36:53.223Z,11.80
2023-03-21T20:39:20.032Z,11.80
2023-03-21T20:41:46.753Z,11.70
2023-03-21T20:44:42.168Z,11.70
2023-03-21T20:47:00.383Z,11.70
2023-03-21T20:49:28.457Z,11.70
2023-03-21T20:54:43.248Z,11.60
2023-03-21T20:57:10.042Z,11.50
2023-03-21T20:59:36.671Z,11.60
2023-03-21T21:02:03.609Z,11.50
2023-03-21T21:04:52.760Z,11.40
2023-03-21T21:07:20.216Z,11.40
2023-03-21T21:09:47.896Z,11.30
2023-03-21T21:12:16.717Z,11.40
2023-03-21T21:14:43.967Z,11.20
2023-03-21T21:17:30.757Z,11.20
2023-03-21T21:19:57.657Z,11.20
2023-03-21T21:22:24.296Z,11.10
2023-03-21T21:24:51.807Z,11.00
2023-03-21T21:27:18.470Z,11.00
2023-03-21T21:29:47.486Z,11.10
2023-03-21T21:32:16.860Z,11.10
2023-03-21T21:34:43.601Z,11.00
2023-03-21T21:37:10.565Z,11.00
2023-03-21T21:39:38.464Z,11.00
2023-03-21T21:42:05.497Z,10.90
2023-03-21T21:44:32.281Z,10.90
2023-03-21T21:46:59.108Z,10.90
2023-03-21T21:49:26.612Z,10.80
2023-03-21T21:51:53.334Z,10.80
2023-03-21T21:54:20.981Z,10.80
2023-03-21T21:56:48.450Z,10.70
2023-03-21T21:59:21.904Z,10.70
2023-03-21T22:01:51.011Z,10.60
2023-03-21T22:04:17.999Z,10.60
2023-03-21T22:06:44.658Z,10.60
2023-03-21T22:09:11.355Z,10.70
2023-03-21T22:11:37.999Z,10.70
2023-03-21T22:14:04.673Z,10.60
2023-03-21T22:16:31.427Z,10.60
2023-03-21T22:18:58.174Z,10.60
2023-03-21T22:21:24.837Z,10.60
2023-03-21T22:23:51.555Z,10.60
2023-03-21T22:26:18.234Z,10.60
2023-03-21T22:28:44.916Z,10.60
2023-03-21T22:31:14.201Z,10.60
2023-03-21T22:33:41.149Z,10.60
2023-03-21T22:36:08.311Z,10.50
2023-03-21T22:38:38.018Z,10.40
2023-03-21T22:41:06.428Z,10.40
2023-03-21T22:43:34.253Z,10.30
2023-03-21T22:46:02.706Z,10.30
2023-03-21T22:48:32.415Z,10.40
2023-03-21T22:50:59.775Z,10.50
2023-03-21T22:53:26.643Z,10.50
2023-03-21T22:55:53.315Z,10.50
2023-03-21T22:58:20.362Z,10.60
2023-03-21T23:00:47.416Z,10.60
2023-03-21T23:03:16.643Z,10.60
2023-03-21T23:05:45.223Z,10.60
2023-03-21T23:08:12.718Z,10.60
2023-03-21T23:10:41.384Z,10.60
2023-03-21T23:13:08.236Z,10.60
2023-03-21T23:15:34.905Z,10.60
2023-03-21T23:18:01.615Z,10.60
2023-03-21T23:20:28.274Z,10.60
2023-03-21T23:22:55.401Z,10.60
2023-03-21T23:25:22.050Z,10.50
2023-03-21T23:27:48.842Z,10.50
2023-03-21T23:30:15.530Z,10.50
2023-03-21T23:32:42.601Z,10.50
2023-03-21T23:35:09.821Z,10.40
2023-03-21T23:37:36.908Z,10.40
2023-03-21T23:40:06.214Z,10.40
2023-03-21T23:42:34.101Z,10.40
2023-03-21T23:45:00.805Z,10.40
2023-03-21T23:47:27.883Z,10.40
2023-03-21T23:49:54.503Z,10.50
2023-03-21T23:52:21.310Z,10.50
2023-03-21T23:54:47.989Z,10.60
2023-03-21T23:57:14.663Z,10.60
2023-03-21T23:59:41.342Z,10.60
